CheckWX is a tool to help pilots better visualize weather data.  It is not intended as a substitute for an official pre-flight weather briefing.

01:46:01 UTC

SKAR METAR
El Eden Airport
Armenia, Colombia
Current

46 mins ago

SKAR 210100Z 00000KT 9999 SCT022 SCT090 22/18 A3000
Observed
Mar-21 @ 01:00 UTC
Visibility
10,000+ meters
Flight Rules
VFR
Cloud Levels
  • Scattered at 2,200' AGL
  • Scattered at 9,000' AGL
Temperature
22°C / 72°F
Dewpoint
18°C / 64°F
Humidity
78%
Altimeter
30" Hg
Pressure
1015.92 hPa
Previous

2 hours ago

SKAR 210000Z 00000KT 9999 SCT022 SCT100 23/18 A2998
Observed
Mar-21 @ 00:00 UTC
Visibility
10,000+ meters
Flight Rules
VFR
Cloud Levels
  • Scattered at 2,200' AGL
  • Scattered at 10,000' AGL
Temperature
23°C / 73°F
Dewpoint
18°C / 64°F
Humidity
74%
Altimeter
29.98" Hg
Pressure
1015.22 hPa
Previous

3 hours ago

SKAR 202300Z 00000KT 9999 SCT025 SCT100 25/18 A2995 RMK VCSH/N
Observed
Mar-20 @ 23:00 UTC
Visibility
10,000+ meters
Flight Rules
VFR
Cloud Levels
  • Scattered at 2,500' AGL
  • Scattered at 10,000' AGL
Temperature
25°C / 77°F
Dewpoint
18°C / 64°F
Humidity
65%
Altimeter
29.95" Hg
Pressure
1014.22 hPa